Airfield :
LOGIN :

Register | Disclaimer

   EN    FR    IT 

 










Legend :    VFR   Marginal VFR   IFR   Intensive IFR   Very Intensive IFR
Visi :
Ceiling :
>= 8 km
>= 3000ft
5 to 8 km
1000 to 3000 ft
1500m to 5 km
500 to 1000 ft
800 to 1500m
200 to 500 ft
< 800m
< 200 ft
Symbols :   Thunderstorms  Fog  Heavy snow  Heavy precipitations  Wind > 20 kt
SIGMETs :     Misc.  Thunderstorms  Icing  Turbulence  Mountain Waves  Volcanic Ashes






- Airport Elevation : 1115 ft
- IATA code : GRZ


LOWG - Graz

CURRENT METAR :
  • 280250Z AUTO 05002KT 0300 R16/0400N R34/0325N FZFG FEW000 BKN001 M04/M04 Q1022

EXPIRED METARs :
  • 280220Z AUTO VRB01KT 0250 R16/0275N R34/0450D FZFG FEW000 SCT001 M05/M05 Q1022
  • 280150Z AUTO VRB02KT 0600 R16/0600N R34/1100U BCFG FEW000 SCT001 M04/M04 Q1023
  • 272220Z AUTO VRB01KT 9999 FEW034 BKN036 M02/M03 Q1024 NOSIG
  • 280120Z AUTO 00000KT 0500 R16/0550D R34/0650D FZFG FEW001 SCT002 M05/M05 Q1023
  • 280050Z AUTO VRB01KT 0500 R16/0600D R34/P1500U BCFG FEW001 SCT004 M02/M03 Q1023

TAF TAF LOWG
Valid from the 28 at 00:00 until the 29 at 00:00 UTC


272315Z 2800/2824 VRB03KT 6000 SCT035 TX03/2813Z TNM02/2801Z
TEMPO 2800/2810 0700 BCFG BKN004
PROB30
TEMPO 2802/2808 0300 FZFG VV001



MET'MAP, your aeronautical weather chart ! - Copyright ORBIFLY December 2007 - Disclaimer

ORBIFLY MET'MAP TEAM :

Programming & Development : Alexandra Zaïnal
Original concept : Baudouin d'Aumeries
Technical & hardware support : Manuel Goepfert
Assistance : Marc-Olivier Méhu




SOURCES & CREDITS :

   NOAA